Auburn, California
Current Conditions -  °F | °C
As of 1:15 PM on Saturday 25 Oct 2014 (Local Time) from KAUN Reporting Station
Broken Clouds Broken Clouds  
Wind Chill: 55°   Ceiling: 2200
Heat Index: 55°   Visibility: 10mi
Dew Point: 54°   Wind: 12mph
Humidity: 94%   Direction: 130°SE
Pressure: 30.07"   Gusts: NA
Location:  38.9°N, 121.07°W
Report Text: KAUN 252015Z AUTO 13010KT 10SM FEW012 BKN022 BKN100 13/12 A3007 RMK AO1
Loading
Personal Weather Stations






























Interactive Weather Map
Tropical Storm Tracking
New forecast layout! Learn more

10-Day Weather Forecast

Advertisements
Track Severe Weather on mobile